createdAt,value
2022-08-08T00:00:52.669Z,63.89
2022-08-08T00:02:31.171Z,64.34
2022-08-08T00:04:49.498Z,64.15
2022-08-08T00:07:13.989Z,63.40
2022-08-08T00:09:32.995Z,64.71
2022-08-08T00:12:06.847Z,65.33
2022-08-08T00:14:48.218Z,64.04
2022-08-08T00:17:05.249Z,64.15
2022-08-08T00:19:40.329Z,65.43
2022-08-08T00:22:03.723Z,66.14
2022-08-08T00:24:24.128Z,66.66
2022-08-08T00:26:47.471Z,64.94
2022-08-08T00:29:07.862Z,64.91
2022-08-08T00:32:21.338Z,66.30
2022-08-08T00:34:18.811Z,66.91
2022-08-08T00:36:37.006Z,66.90
2022-08-08T00:39:00.221Z,67.15
2022-08-08T00:41:17.155Z,67.34
2022-08-08T00:43:40.540Z,67.37
2022-08-08T00:45:58.375Z,67.72
2022-08-08T00:48:29.887Z,66.28
2022-08-08T00:50:52.458Z,67.28
2022-08-08T00:53:15.553Z,66.96
2022-08-08T00:55:35.945Z,65.84
2022-08-08T00:58:13.608Z,68.01
2022-08-08T01:00:35.912Z,66.46
2022-08-08T01:04:00.165Z,67.34
2022-08-08T01:05:58.307Z,67.70
2022-08-08T01:08:09.462Z,66.54
2022-08-08T01:10:27.513Z,66.51
2022-08-08T01:12:44.789Z,66.24
2022-08-08T01:15:02.079Z,66.58
2022-08-08T01:17:35.019Z,68.81
2022-08-08T01:20:02.589Z,67.09
2022-08-08T01:22:23.102Z,66.91
2022-08-08T01:24:41.165Z,66.88
2022-08-08T01:27:00.692Z,66.95
2022-08-08T01:29:17.960Z,67.21
2022-08-08T01:32:06.620Z,67.57
2022-08-08T01:34:20.314Z,67.80
2022-08-08T01:36:37.875Z,69.50
2022-08-08T01:38:57.408Z,68.22
2022-08-08T01:41:15.962Z,68.26
2022-08-08T01:43:34.815Z,69.47
2022-08-08T01:45:56.521Z,68.25
2022-08-08T01:48:23.315Z,69.11
2022-08-08T01:50:48.819Z,70.04
2022-08-08T01:55:17.413Z,70.25
2022-08-08T01:56:28.109Z,69.98
2022-08-08T01:58:38.297Z,69.02
2022-08-08T02:00:58.174Z,70.40
2022-08-08T02:03:56.090Z,70.27
2022-08-08T02:05:56.161Z,69.45
2022-08-08T02:08:15.944Z,69.89
2022-08-08T02:10:41.587Z,70.26
2022-08-08T02:13:02.500Z,70.72
2022-08-08T02:15:20.523Z,70.43
2022-08-08T02:17:42.930Z,70.81
2022-08-08T02:20:09.541Z,71.00
2022-08-08T02:22:33.661Z,70.47
2022-08-08T02:24:51.947Z,70.36
2022-08-08T02:27:09.727Z,69.86
2022-08-08T02:29:41.417Z,70.80
2022-08-08T02:32:01.095Z,69.60
2022-08-08T02:34:32.897Z,69.30
2022-08-08T02:36:50.471Z,69.43
2022-08-08T02:39:41.820Z,69.78
2022-08-08T02:42:03.636Z,70.33
2022-08-08T02:44:35.717Z,69.80
2022-08-08T02:46:58.414Z,70.83
2022-08-08T02:49:18.787Z,70.62
2022-08-08T02:51:59.058Z,71.66
2022-08-08T02:54:18.231Z,70.87
2022-08-08T02:56:35.567Z,71.14
2022-08-08T02:58:52.853Z,70.36
2022-08-08T03:01:14.918Z,71.02
2022-08-08T03:05:00.355Z,71.00
2022-08-08T03:06:09.162Z,71.01
2022-08-08T03:08:27.421Z,70.88
2022-08-08T03:10:53.412Z,71.50
2022-08-08T03:13:33.909Z,71.93
2022-08-08T03:15:56.207Z,72.04
2022-08-08T03:18:31.348Z,72.09
2022-08-08T03:20:51.649Z,71.43
2022-08-08T03:23:09.025Z,72.22
2022-08-08T03:25:35.970Z,72.70
2022-08-08T03:27:57.080Z,71.78
2022-08-08T03:30:15.265Z,72.17
2022-08-08T03:32:36.142Z,72.53
2022-08-08T03:34:58.888Z,72.59
2022-08-08T03:38:00.058Z,72.88
2022-08-08T03:40:00.446Z,73.20
2022-08-08T03:42:28.040Z,73.01
2022-08-08T03:44:52.011Z,72.41
2022-08-08T03:47:19.455Z,72.72
2022-08-08T03:50:00.613Z,72.70
2022-08-08T03:52:14.466Z,73.82
2022-08-08T03:54:41.801Z,74.27
2022-08-08T03:58:31.567Z,73.88
2022-08-08T03:59:57.336Z,74.21
2022-08-08T04:02:33.141Z,74.09
2022-08-08T04:05:00.947Z,73.96
2022-08-08T04:07:21.341Z,73.27
2022-08-08T04:09:57.457Z,73.77
2022-08-08T04:12:16.114Z,73.04
2022-08-08T04:14:36.366Z,72.76
2022-08-08T04:16:53.640Z,72.98
2022-08-08T04:19:23.427Z,73.23
2022-08-08T04:21:45.765Z,72.90
2022-08-08T04:24:19.322Z,73.22
2022-08-08T04:26:57.490Z,72.79
2022-08-08T04:29:15.617Z,72.66
2022-08-08T04:31:59.292Z,72.75
2022-08-08T04:34:10.606Z,72.97
2022-08-08T04:36:27.774Z,73.07
2022-08-08T04:38:57.218Z,73.69
2022-08-08T04:41:25.177Z,73.53
2022-08-08T04:43:57.211Z,73.79
2022-08-08T04:46:15.011Z,73.67
2022-08-08T04:48:32.330Z,73.88
2022-08-08T04:50:50.273Z,74.27
2022-08-08T04:53:52.135Z,74.20
2022-08-08T04:55:55.515Z,74.31
2022-08-08T04:58:14.045Z,73.86
2022-08-08T05:00:34.901Z,73.98
2022-08-08T05:02:53.181Z,73.89
2022-08-08T05:05:16.262Z,74.37
2022-08-08T05:07:41.937Z,74.13
2022-08-08T05:09:59.698Z,74.81
2022-08-08T05:12:34.908Z,74.08
2022-08-08T05:14:54.480Z,73.00
2022-08-08T05:17:11.724Z,72.83
2022-08-08T05:20:10.417Z,73.33
2022-08-08T05:22:05.726Z,73.27
2022-08-08T05:24:26.185Z,73.62
2022-08-08T05:26:43.576Z,73.37
2022-08-08T05:29:06.071Z,73.50
2022-08-08T05:32:02.324Z,72.67
2022-08-08T05:34:03.501Z,72.46
2022-08-08T05:36:25.127Z,72.54
2022-08-08T05:38:46.165Z,72.77
2022-08-08T05:41:03.426Z,71.30
2022-08-08T05:43:39.534Z,72.08
2022-08-08T05:46:03.890Z,71.88
2022-08-08T05:48:28.677Z,71.73
2022-08-08T05:50:48.248Z,71.56
2022-08-08T05:53:54.220Z,70.43
2022-08-08T05:56:10.655Z,70.41
2022-08-08T05:58:32.635Z,69.32
2022-08-08T06:00:56.887Z,67.81
2022-08-08T06:03:17.405Z,69.48
2022-08-08T06:05:42.077Z,68.22
2022-08-08T06:08:02.552Z,66.27
2022-08-08T06:10:26.263Z,66.38
2022-08-08T06:12:44.894Z,65.24
2022-08-08T06:15:06.539Z,65.61
2022-08-08T06:17:50.497Z,66.14
2022-08-08T06:20:01.144Z,65.65
2022-08-08T06:22:35.403Z,63.32
2022-08-08T06:24:53.585Z,63.46
2022-08-08T06:27:10.697Z,63.34
2022-08-08T06:30:00.536Z,63.25
2022-08-08T06:32:11.510Z,63.28
2022-08-08T06:34:32.415Z,62.70
2022-08-08T06:36:53.576Z,62.22
2022-08-08T06:39:11.172Z,61.56
2022-08-08T06:41:29.729Z,61.32
2022-08-08T06:43:57.419Z,61.58
2022-08-08T06:46:16.235Z,60.47
2022-08-08T06:48:33.442Z,59.88
2022-08-08T06:50:52.108Z,59.91
2022-08-08T06:53:17.304Z,59.44
2022-08-08T06:55:41.600Z,56.25
2022-08-08T06:58:03.620Z,57.81
2022-08-08T07:00:30.636Z,56.24
2022-08-08T07:02:48.066Z,54.73
2022-08-08T07:05:07.073Z,54.90
2022-08-08T07:07:29.676Z,54.28
2022-08-08T07:09:59.175Z,53.75
2022-08-08T07:12:17.325Z,53.58
2022-08-08T07:14:35.007Z,53.30
2022-08-08T07:16:54.366Z,53.08
2022-08-08T07:19:11.564Z,53.79
2022-08-08T07:21:31.163Z,53.10
2022-08-08T07:24:01.751Z,52.57
2022-08-08T07:26:28.819Z,52.52
2022-08-08T07:28:50.083Z,51.26
2022-08-08T07:31:13.362Z,51.20
2022-08-08T07:33:37.675Z,50.53
2022-08-08T07:35:55.254Z,50.75
2022-08-08T07:38:21.079Z,50.66
2022-08-08T07:40:43.121Z,50.14
2022-08-08T07:43:00.519Z,49.87
2022-08-08T07:45:18.994Z,49.70
2022-08-08T07:47:38.588Z,48.57
2022-08-08T07:49:58.523Z,48.98
2022-08-08T07:52:23.153Z,48.29
2022-08-08T07:54:43.740Z,48.64
2022-08-08T07:57:02.030Z,48.83
2022-08-08T07:59:20.109Z,47.87
2022-08-08T08:02:35.398Z,46.10
2022-08-08T08:04:14.421Z,45.46
2022-08-08T08:06:33.392Z,46.37
2022-08-08T08:08:55.668Z,45.64
2022-08-08T08:11:16.170Z,46.77
2022-08-08T08:13:42.646Z,44.76
2022-08-08T08:16:17.030Z,45.14
2022-08-08T08:18:40.718Z,45.50
2022-08-08T08:21:18.567Z,44.33
2022-08-08T08:23:40.893Z,45.04
2022-08-08T08:25:58.627Z,45.00
2022-08-08T08:28:23.615Z,43.63
2022-08-08T08:30:41.548Z,44.08
2022-08-08T08:33:02.677Z,42.16
2022-08-08T08:35:21.635Z,41.86
2022-08-08T08:38:13.057Z,42.92
2022-08-08T08:40:24.149Z,42.91
2022-08-08T08:42:42.351Z,43.03
2022-08-08T08:44:59.409Z,42.02
2022-08-08T08:47:18.092Z,41.14
2022-08-08T08:49:35.423Z,41.31
2022-08-08T08:52:00.480Z,40.03
2022-08-08T08:54:17.653Z,40.00
2022-08-08T08:56:42.540Z,40.86
2022-08-08T08:59:03.320Z,39.52
2022-08-08T09:01:22.648Z,38.72
2022-08-08T09:03:46.613Z,38.70
2022-08-08T09:06:04.317Z,39.04
2022-08-08T09:08:41.559Z,39.29
2022-08-08T09:11:06.944Z,38.84
2022-08-08T09:13:28.261Z,38.72
2022-08-08T09:15:45.365Z,38.45
2022-08-08T09:18:05.846Z,36.43
2022-08-08T09:21:57.639Z,36.39
2022-08-08T09:23:00.082Z,36.35
2022-08-08T09:25:17.340Z,34.10
2022-08-08T09:27:56.670Z,35.49
2022-08-08T09:30:17.577Z,35.93
2022-08-08T09:32:36.776Z,35.47
2022-08-08T09:34:55.094Z,36.79
2022-08-08T09:37:57.380Z,33.87
2022-08-08T09:39:49.425Z,34.43
2022-08-08T09:42:20.764Z,34.23
2022-08-08T09:44:38.971Z,33.45
2022-08-08T09:47:05.019Z,33.84
2022-08-08T09:49:42.459Z,34.52
2022-08-08T09:52:07.228Z,33.53
2022-08-08T09:54:37.302Z,33.83
2022-08-08T09:56:55.146Z,33.37
2022-08-08T09:59:50.330Z,33.38
2022-08-08T10:02:02.885Z,33.33
2022-08-08T10:04:38.488Z,33.60
2022-08-08T10:06:59.936Z,33.30
2022-08-08T10:09:17.190Z,33.10
2022-08-08T10:12:25.948Z,33.50
2022-08-08T10:14:28.030Z,32.68
2022-08-08T10:16:52.375Z,32.13
2022-08-08T10:19:10.483Z,32.71
2022-08-08T10:21:33.099Z,31.81
2022-08-08T10:23:59.810Z,31.54
2022-08-08T10:26:30.291Z,31.02
2022-08-08T10:28:53.677Z,29.33
2022-08-08T10:31:11.528Z,30.94
2022-08-08T10:33:37.928Z,30.46
2022-08-08T10:36:08.287Z,31.41
2022-08-08T10:38:38.199Z,30.33
2022-08-08T10:40:57.736Z,31.34
2022-08-08T10:43:15.644Z,30.65
2022-08-08T10:45:41.233Z,29.90
2022-08-08T10:47:59.859Z,30.18
2022-08-08T10:50:17.926Z,31.23
2022-08-08T10:52:35.070Z,29.79
2022-08-08T10:54:52.372Z,30.33
2022-08-08T10:57:09.406Z,29.20
2022-08-08T10:59:30.923Z,30.57
2022-08-08T11:01:54.425Z,30.78
2022-08-08T11:04:12.140Z,29.55
2022-08-08T11:06:35.024Z,29.96
2022-08-08T11:08:53.673Z,29.71
2022-08-08T11:11:32.844Z,29.89
2022-08-08T11:13:52.044Z,29.19
2022-08-08T11:16:33.172Z,30.24
2022-08-08T11:18:51.523Z,29.85
2022-08-08T11:21:08.951Z,29.49
2022-08-08T11:23:31.293Z,29.67
2022-08-08T11:25:55.369Z,29.50
2022-08-08T11:28:14.300Z,29.34
2022-08-08T11:30:31.993Z,29.14
2022-08-08T11:32:50.257Z,29.00
2022-08-08T11:35:27.114Z,28.90
2022-08-08T11:38:35.632Z,29.48
2022-08-08T11:40:26.966Z,28.74
2022-08-08T11:42:51.177Z,28.99
2022-08-08T11:45:09.340Z,28.79
2022-08-08T11:47:39.808Z,28.86
2022-08-08T11:50:04.241Z,27.58
2022-08-08T11:52:31.861Z,28.42
2022-08-08T11:54:49.162Z,29.43
2022-08-08T11:57:06.553Z,28.38
2022-08-08T11:59:58.851Z,28.51
2022-08-08T12:02:31.230Z,28.28
2022-08-08T12:04:47.893Z,28.50
2022-08-08T12:07:16.847Z,28.46
2022-08-08T12:09:56.637Z,27.04
2022-08-08T12:12:14.440Z,28.75
2022-08-08T12:14:34.421Z,28.84
2022-08-08T12:16:54.223Z,27.87
2022-08-08T12:19:11.323Z,28.08
2022-08-08T12:21:59.669Z,28.24
2022-08-08T12:24:06.160Z,29.16
2022-08-08T12:26:35.796Z,27.05
2022-08-08T12:28:53.642Z,28.29
2022-08-08T12:31:11.583Z,26.86
2022-08-08T12:33:37.823Z,27.37
2022-08-08T12:36:09.501Z,28.12
2022-08-08T12:38:30.549Z,27.61
2022-08-08T12:40:57.267Z,27.97
2022-08-08T12:43:16.372Z,28.79
2022-08-08T12:45:58.874Z,28.29
2022-08-08T12:48:37.694Z,26.47
2022-08-08T12:50:51.557Z,27.85
2022-08-08T12:53:08.900Z,27.65
2022-08-08T12:55:35.446Z,27.33
2022-08-08T12:58:04.265Z,27.39
2022-08-08T13:00:23.830Z,27.11
2022-08-08T13:02:52.584Z,26.72
2022-08-08T13:05:15.547Z,26.69
2022-08-08T13:08:04.234Z,27.39
2022-08-08T13:10:20.220Z,27.36
2022-08-08T13:12:47.113Z,26.32
2022-08-08T13:15:05.565Z,26.61
2022-08-08T13:18:08.594Z,25.19
2022-08-08T13:20:04.064Z,27.56
2022-08-08T13:22:26.453Z,27.36
2022-08-08T13:24:48.735Z,27.07
2022-08-08T13:27:10.828Z,26.83
2022-08-08T13:29:29.918Z,26.30
2022-08-08T13:31:57.405Z,26.10
2022-08-08T13:34:14.344Z,26.48
2022-08-08T13:36:38.479Z,27.27
2022-08-08T13:39:00.138Z,26.27
2022-08-08T13:41:18.692Z,26.48
2022-08-08T13:43:39.193Z,25.19
2022-08-08T13:45:57.006Z,25.76
2022-08-08T13:48:17.267Z,24.79
2022-08-08T13:50:48.943Z,25.03
2022-08-08T13:53:22.738Z,27.04
2022-08-08T13:55:43.427Z,26.66
2022-08-08T13:58:07.825Z,26.64
2022-08-08T14:00:28.785Z,24.17
2022-08-08T14:02:46.160Z,27.11
2022-08-08T14:05:04.794Z,27.15
2022-08-08T14:07:29.873Z,25.61
2022-08-08T14:10:04.506Z,25.67
2022-08-08T14:12:24.581Z,26.43
2022-08-08T14:14:43.330Z,27.36
2022-08-08T14:17:01.159Z,25.03
2022-08-08T14:19:29.372Z,25.44
2022-08-08T14:21:56.162Z,24.86
2022-08-08T14:24:16.008Z,24.79
2022-08-08T14:26:33.575Z,24.46
2022-08-08T14:28:51.551Z,26.33
2022-08-08T14:31:09.286Z,26.70
2022-08-08T14:33:26.901Z,26.80
2022-08-08T14:35:53.498Z,26.25
2022-08-08T14:38:34.825Z,24.82
2022-08-08T14:40:48.075Z,25.38
2022-08-08T14:43:31.328Z,25.64
2022-08-08T14:46:01.574Z,26.84
2022-08-08T14:48:27.483Z,25.32
2022-08-08T14:50:52.336Z,24.61
2022-08-08T14:53:14.320Z,25.95
2022-08-08T14:55:41.278Z,26.12
2022-08-08T14:58:06.296Z,26.13
2022-08-08T15:00:28.820Z,26.06
2022-08-08T15:02:59.067Z,26.52
2022-08-08T15:05:42.583Z,26.36
2022-08-08T15:08:03.343Z,26.74
2022-08-08T15:10:23.132Z,26.56
2022-08-08T15:12:48.027Z,26.30
2022-08-08T15:15:09.451Z,25.47
2022-08-08T15:17:27.228Z,25.95
2022-08-08T15:19:44.330Z,25.09
2022-08-08T15:22:06.069Z,25.18
2022-08-08T15:24:23.176Z,26.03
2022-08-08T15:26:52.979Z,24.75
2022-08-08T15:29:10.358Z,24.71
2022-08-08T15:32:17.689Z,26.10
2022-08-08T15:34:04.688Z,25.85
2022-08-08T15:36:21.670Z,25.47
2022-08-08T15:38:50.240Z,26.05
2022-08-08T15:41:07.988Z,25.58
2022-08-08T15:43:35.706Z,25.58
2022-08-08T15:45:54.083Z,25.40
2022-08-08T15:48:15.975Z,23.62
2022-08-08T15:50:33.575Z,24.83
2022-08-08T15:52:51.015Z,25.73
2022-08-08T15:55:08.978Z,26.06
2022-08-08T15:57:26.923Z,26.18
2022-08-08T16:00:26.331Z,25.55
2022-08-08T16:02:30.738Z,26.55
2022-08-08T16:04:53.583Z,26.15
2022-08-08T16:07:15.909Z,26.28
2022-08-08T16:13:03.456Z,26.60
2022-08-08T16:13:21.035Z,26.25
2022-08-08T16:14:53.649Z,26.84
2022-08-08T16:17:15.031Z,26.58
2022-08-08T16:19:57.256Z,26.02
2022-08-08T16:22:30.000Z,26.50
2022-08-08T16:24:56.777Z,26.90
2022-08-08T16:27:17.939Z,25.53
2022-08-08T16:29:37.434Z,26.40
2022-08-08T16:32:13.536Z,26.59
2022-08-08T16:34:40.844Z,26.19
2022-08-08T16:36:57.885Z,26.57
2022-08-08T16:39:28.458Z,26.38
2022-08-08T16:41:53.164Z,26.64
2022-08-08T16:44:13.814Z,27.23
2022-08-08T16:46:42.842Z,27.26
2022-08-08T16:49:03.167Z,26.86
2022-08-08T16:55:00.262Z,27.62
2022-08-08T16:55:04.482Z,27.28
2022-08-08T16:56:36.780Z,27.01
2022-08-08T16:59:14.533Z,27.18
2022-08-08T17:01:39.426Z,27.17
2022-08-08T17:03:59.415Z,27.09
2022-08-08T17:06:37.628Z,26.73
2022-08-08T17:08:55.535Z,26.80
2022-08-08T17:11:13.983Z,27.78
2022-08-08T17:13:49.715Z,27.83
2022-08-08T17:16:07.567Z,28.12
2022-08-08T17:18:32.601Z,27.98
2022-08-08T17:20:49.706Z,28.33
2022-08-08T17:23:17.884Z,28.41
2022-08-08T17:25:53.502Z,28.73
2022-08-08T17:28:14.816Z,29.68
2022-08-08T17:30:34.797Z,27.75
2022-08-08T17:33:43.937Z,28.34
2022-08-08T17:35:54.851Z,28.69
2022-08-08T17:38:07.328Z,28.92
2022-08-08T17:40:24.429Z,29.41
2022-08-08T17:42:46.979Z,29.50
2022-08-08T17:45:07.900Z,29.93
2022-08-08T17:47:41.508Z,29.74
2022-08-08T17:50:00.943Z,29.55
2022-08-08T17:52:20.004Z,29.20
2022-08-08T17:54:40.396Z,29.76
2022-08-08T17:57:04.552Z,31.98
2022-08-08T17:59:34.727Z,31.67
2022-08-08T18:01:54.130Z,32.07
2022-08-08T18:04:12.141Z,32.66
2022-08-08T18:06:42.872Z,31.76
2022-08-08T18:09:00.310Z,33.12
2022-08-08T18:11:20.566Z,33.15
2022-08-08T18:13:42.081Z,34.03
2022-08-08T18:15:59.935Z,34.51
2022-08-08T18:18:29.474Z,34.25
2022-08-08T18:20:59.328Z,34.83
2022-08-08T18:23:17.382Z,35.06
2022-08-08T18:25:39.672Z,34.70
2022-08-08T18:27:58.715Z,35.78
2022-08-08T18:30:18.169Z,36.07
2022-08-08T18:32:35.166Z,36.09
2022-08-08T18:34:59.504Z,37.16
2022-08-08T18:37:17.695Z,37.16
2022-08-08T18:39:55.343Z,38.20
2022-08-08T18:42:15.788Z,38.81
2022-08-08T18:44:35.878Z,37.94
2022-08-08T18:46:57.786Z,39.31
2022-08-08T18:49:15.496Z,40.04
2022-08-08T18:51:54.250Z,39.38
2022-08-08T18:54:24.777Z,39.54
2022-08-08T18:56:47.171Z,39.79
2022-08-08T18:59:06.666Z,40.54
2022-08-08T19:02:25.346Z,40.64
2022-08-08T19:04:10.412Z,41.77
2022-08-08T19:06:28.938Z,41.57
2022-08-08T19:08:46.266Z,41.32
2022-08-08T19:11:06.274Z,41.84
2022-08-08T19:13:47.268Z,41.68
2022-08-08T19:16:04.084Z,42.16
2022-08-08T19:18:33.557Z,42.37
2022-08-08T19:21:00.821Z,42.22
2022-08-08T19:23:18.761Z,42.59
2022-08-08T19:26:01.921Z,42.58
2022-08-08T19:28:19.550Z,42.98
2022-08-08T19:30:37.453Z,43.99
2022-08-08T19:33:11.469Z,43.45
2022-08-08T19:35:45.450Z,44.34
2022-08-08T19:38:02.814Z,44.12
2022-08-08T19:40:21.980Z,44.90
2022-08-08T19:42:49.060Z,44.47
2022-08-08T19:45:07.679Z,45.00
2022-08-08T19:47:34.154Z,45.31
2022-08-08T19:49:59.789Z,44.70
2022-08-08T19:52:18.413Z,45.21
2022-08-08T19:54:56.744Z,47.46
2022-08-08T19:57:17.879Z,47.32
2022-08-08T19:59:35.204Z,47.57
2022-08-08T20:02:03.040Z,46.96
2022-08-08T20:04:22.413Z,48.32
2022-08-08T20:06:41.744Z,47.18
2022-08-08T20:09:04.610Z,47.56
2022-08-08T20:11:26.180Z,47.57
2022-08-08T20:14:12.604Z,48.68
2022-08-08T20:16:23.166Z,48.97
2022-08-08T20:18:52.628Z,47.49
2022-08-08T20:21:14.420Z,47.27
2022-08-08T20:23:32.909Z,47.38
2022-08-08T20:25:52.623Z,47.97
2022-08-08T20:28:17.676Z,48.67
2022-08-08T20:30:52.900Z,48.86
2022-08-08T20:33:19.786Z,48.14
2022-08-08T20:35:56.821Z,49.25
2022-08-08T20:38:09.112Z,48.79
2022-08-08T20:40:39.074Z,50.34
2022-08-08T20:42:56.693Z,50.39
2022-08-08T20:45:14.692Z,49.10
2022-08-08T20:47:57.790Z,49.14
2022-08-08T20:50:18.582Z,49.79
2022-08-08T20:52:48.262Z,48.16
2022-08-08T20:55:07.599Z,49.21
2022-08-08T20:57:44.045Z,48.88
2022-08-08T21:00:04.805Z,48.53
2022-08-08T21:02:26.256Z,47.54
2022-08-08T21:04:47.699Z,47.73
2022-08-08T21:07:08.197Z,48.68
2022-08-08T21:09:31.663Z,49.16
2022-08-08T21:11:51.553Z,48.96
2022-08-08T21:14:10.813Z,48.11
2022-08-08T21:16:29.039Z,48.98
2022-08-08T21:18:46.648Z,48.29
2022-08-08T21:21:03.927Z,49.14
2022-08-08T21:23:25.245Z,48.38
2022-08-08T21:25:59.085Z,49.20
2022-08-08T21:28:33.652Z,48.60
2022-08-08T21:30:52.744Z,48.47
2022-08-08T21:33:11.791Z,49.26
2022-08-08T21:36:16.671Z,49.33
2022-08-08T21:38:15.999Z,49.96
2022-08-08T21:40:36.083Z,49.91
2022-08-08T21:42:53.451Z,50.56
2022-08-08T21:45:44.068Z,51.53
2022-08-08T21:48:00.948Z,50.56
2022-08-08T21:50:20.363Z,50.67
2022-08-08T21:54:32.271Z,51.19
2022-08-08T21:55:24.375Z,52.43
2022-08-08T21:58:05.510Z,52.83
2022-08-08T22:00:26.172Z,53.16
2022-08-08T22:02:44.301Z,53.44
2022-08-08T22:05:01.883Z,53.53
2022-08-08T22:07:20.972Z,54.39
2022-08-08T22:09:43.763Z,53.72
2022-08-08T22:12:08.873Z,53.85
2022-08-08T22:14:28.921Z,55.34
2022-08-08T22:16:46.185Z,54.51
2022-08-08T22:19:08.723Z,54.88
2022-08-08T22:21:34.668Z,54.95
2022-08-08T22:23:53.707Z,54.93
2022-08-08T22:26:26.795Z,54.96
2022-08-08T22:29:13.788Z,55.96
2022-08-08T22:31:29.509Z,56.34
2022-08-08T22:34:13.258Z,56.09
2022-08-08T22:36:34.224Z,56.65
2022-08-08T22:38:51.837Z,55.83
2022-08-08T22:41:15.988Z,56.04
2022-08-08T22:43:39.260Z,57.27
2022-08-08T22:46:15.184Z,56.46
2022-08-08T22:48:33.789Z,56.76
2022-08-08T22:50:51.107Z,57.35
2022-08-08T22:54:27.722Z,56.33
2022-08-08T22:55:58.291Z,57.97
2022-08-08T22:58:18.546Z,57.07
2022-08-08T23:00:37.956Z,57.45
2022-08-08T23:02:57.011Z,57.76
2022-08-08T23:05:17.839Z,57.47
2022-08-08T23:07:51.786Z,57.29
2022-08-08T23:10:19.424Z,58.45
2022-08-08T23:12:40.357Z,58.95
2022-08-08T23:15:10.769Z,57.07
2022-08-08T23:17:46.793Z,59.97
2022-08-08T23:20:11.958Z,59.53
2022-08-08T23:22:29.193Z,60.26
2022-08-08T23:24:47.948Z,60.01
2022-08-08T23:27:06.678Z,60.07
2022-08-08T23:29:23.730Z,58.73
2022-08-08T23:31:41.585Z,59.16
2022-08-08T23:34:16.544Z,60.39
2022-08-08T23:36:35.119Z,58.49
2022-08-08T23:38:54.323Z,60.77
2022-08-08T23:41:23.131Z,58.38
2022-08-08T23:43:45.502Z,60.75
2022-08-08T23:49:03.020Z,59.83
2022-08-08T23:49:03.736Z,60.17
2022-08-08T23:51:42.585Z,59.22
2022-08-08T23:54:39.532Z,57.25
2022-08-08T23:56:34.075Z,57.81
2022-08-08T23:58:51.538Z,58.06
